sensor_id;sensor_type;location;lat;lon;timestamp;P1;durP1;ratioP1;P2;durP2;ratioP2
75007;SDS011;63554;48.940;12.050;2023-07-24T00:01:02;3.70;;;1.95;;
75007;SDS011;63554;48.940;12.050;2023-07-24T00:05:05;5.00;;;2.30;;
75007;SDS011;63554;48.940;12.050;2023-07-24T00:09:10;3.95;;;2.17;;
75007;SDS011;63554;48.940;12.050;2023-07-24T00:13:13;10.07;;;2.72;;
75007;SDS011;63554;48.940;12.050;2023-07-24T00:17:16;7.85;;;2.47;;
75007;SDS011;63554;48.940;12.050;2023-07-24T00:21:19;5.55;;;2.60;;
75007;SDS011;63554;48.940;12.050;2023-07-24T00:25:23;6.18;;;2.70;;
75007;SDS011;63554;48.940;12.050;2023-07-24T00:29:25;4.47;;;2.38;;
75007;SDS011;63554;48.940;12.050;2023-07-24T00:33:28;5.22;;;2.30;;
75007;SDS011;63554;48.940;12.050;2023-07-24T00:37:31;5.13;;;2.00;;
75007;SDS011;63554;48.940;12.050;2023-07-24T00:41:35;5.82;;;2.28;;
75007;SDS011;63554;48.940;12.050;2023-07-24T00:45:37;5.53;;;2.53;;
75007;SDS011;63554;48.940;12.050;2023-07-24T00:49:40;5.72;;;2.83;;
75007;SDS011;63554;48.940;12.050;2023-07-24T00:53:43;4.43;;;2.50;;
75007;SDS011;63554;48.940;12.050;2023-07-24T00:57:50;6.35;;;2.33;;
75007;SDS011;63554;48.940;12.050;2023-07-24T01:01:54;5.47;;;2.67;;
75007;SDS011;63554;48.940;12.050;2023-07-24T01:05:57;7.07;;;2.13;;
75007;SDS011;63554;48.940;12.050;2023-07-24T01:10:00;5.45;;;2.60;;
75007;SDS011;63554;48.940;12.050;2023-07-24T01:14:10;5.00;;;2.78;;
75007;SDS011;63554;48.940;12.050;2023-07-24T01:18:20;7.10;;;2.38;;
75007;SDS011;63554;48.940;12.050;2023-07-24T01:22:30;5.35;;;2.70;;
75007;SDS011;63554;48.940;12.050;2023-07-24T01:26:42;5.53;;;2.38;;
75007;SDS011;63554;48.940;12.050;2023-07-24T01:30:45;5.03;;;2.47;;
75007;SDS011;63554;48.940;12.050;2023-07-24T01:34:47;5.68;;;2.88;;
75007;SDS011;63554;48.940;12.050;2023-07-24T01:38:51;9.57;;;2.40;;
75007;SDS011;63554;48.940;12.050;2023-07-24T01:42:55;6.97;;;2.30;;
75007;SDS011;63554;48.940;12.050;2023-07-24T01:47:00;5.03;;;2.65;;
75007;SDS011;63554;48.940;12.050;2023-07-24T01:51:03;5.38;;;2.25;;
75007;SDS011;63554;48.940;12.050;2023-07-24T01:55:06;3.70;;;1.92;;
75007;SDS011;63554;48.940;12.050;2023-07-24T01:59:11;5.80;;;2.97;;
75007;SDS011;63554;48.940;12.050;2023-07-24T02:03:14;7.63;;;2.58;;
75007;SDS011;63554;48.940;12.050;2023-07-24T02:07:17;5.97;;;2.42;;
75007;SDS011;63554;48.940;12.050;2023-07-24T02:11:20;6.93;;;2.45;;
75007;SDS011;63554;48.940;12.050;2023-07-24T02:15:24;4.97;;;2.22;;
75007;SDS011;63554;48.940;12.050;2023-07-24T02:19:26;5.65;;;2.25;;
75007;SDS011;63554;48.940;12.050;2023-07-24T02:23:29;5.75;;;3.30;;
75007;SDS011;63554;48.940;12.050;2023-07-24T02:27:32;5.65;;;2.22;;
75007;SDS011;63554;48.940;12.050;2023-07-24T02:31:37;6.57;;;2.40;;
75007;SDS011;63554;48.940;12.050;2023-07-24T02:35:40;5.00;;;2.42;;
75007;SDS011;63554;48.940;12.050;2023-07-24T02:39:43;4.25;;;2.17;;
75007;SDS011;63554;48.940;12.050;2023-07-24T02:43:46;7.07;;;2.55;;
75007;SDS011;63554;48.940;12.050;2023-07-24T02:47:50;6.70;;;2.47;;
75007;SDS011;63554;48.940;12.050;2023-07-24T02:51:53;4.70;;;2.13;;
75007;SDS011;63554;48.940;12.050;2023-07-24T02:55:55;7.00;;;2.53;;
75007;SDS011;63554;48.940;12.050;2023-07-24T02:59:58;3.97;;;2.38;;
75007;SDS011;63554;48.940;12.050;2023-07-24T03:04:02;6.10;;;2.53;;
75007;SDS011;63554;48.940;12.050;2023-07-24T03:08:06;4.72;;;2.50;;
75007;SDS011;63554;48.940;12.050;2023-07-24T03:12:09;5.60;;;3.17;;
75007;SDS011;63554;48.940;12.050;2023-07-24T03:16:12;7.30;;;2.35;;
75007;SDS011;63554;48.940;12.050;2023-07-24T03:20:17;6.07;;;2.83;;
75007;SDS011;63554;48.940;12.050;2023-07-24T03:24:21;7.40;;;2.55;;
75007;SDS011;63554;48.940;12.050;2023-07-24T03:28:23;7.60;;;2.65;;
75007;SDS011;63554;48.940;12.050;2023-07-24T03:32:28;5.93;;;2.72;;
75007;SDS011;63554;48.940;12.050;2023-07-24T03:36:32;5.05;;;2.55;;
75007;SDS011;63554;48.940;12.050;2023-07-24T03:40:35;5.35;;;2.50;;
75007;SDS011;63554;48.940;12.050;2023-07-24T03:44:37;4.28;;;2.08;;
75007;SDS011;63554;48.940;12.050;2023-07-24T03:48:40;4.90;;;2.15;;
75007;SDS011;63554;48.940;12.050;2023-07-24T03:52:47;5.50;;;2.33;;
75007;SDS011;63554;48.940;12.050;2023-07-24T03:56:52;7.70;;;3.60;;
75007;SDS011;63554;48.940;12.050;2023-07-24T04:00:55;6.53;;;2.80;;
75007;SDS011;63554;48.940;12.050;2023-07-24T04:04:58;5.10;;;2.65;;
75007;SDS011;63554;48.940;12.050;2023-07-24T04:09:04;6.80;;;3.10;;
75007;SDS011;63554;48.940;12.050;2023-07-24T04:13:07;10.20;;;2.85;;
75007;SDS011;63554;48.940;12.050;2023-07-24T04:17:09;5.03;;;2.35;;
75007;SDS011;63554;48.940;12.050;2023-07-24T04:21:14;5.55;;;2.58;;
75007;SDS011;63554;48.940;12.050;2023-07-24T04:25:19;6.18;;;2.60;;
75007;SDS011;63554;48.940;12.050;2023-07-24T04:29:24;6.32;;;2.65;;
75007;SDS011;63554;48.940;12.050;2023-07-24T04:33:27;6.55;;;2.63;;
75007;SDS011;63554;48.940;12.050;2023-07-24T04:37:31;7.28;;;2.58;;
75007;SDS011;63554;48.940;12.050;2023-07-24T04:41:35;6.85;;;2.67;;
75007;SDS011;63554;48.940;12.050;2023-07-24T04:45:38;7.47;;;3.40;;
75007;SDS011;63554;48.940;12.050;2023-07-24T04:49:41;7.38;;;2.88;;
75007;SDS011;63554;48.940;12.050;2023-07-24T04:53:43;8.07;;;3.15;;
75007;SDS011;63554;48.940;12.050;2023-07-24T04:57:48;7.07;;;2.95;;
75007;SDS011;63554;48.940;12.050;2023-07-24T05:01:52;8.52;;;3.20;;
75007;SDS011;63554;48.940;12.050;2023-07-24T05:05:55;5.28;;;2.70;;
75007;SDS011;63554;48.940;12.050;2023-07-24T05:09:58;5.93;;;3.38;;
75007;SDS011;63554;48.940;12.050;2023-07-24T05:14:02;6.35;;;2.55;;
75007;SDS011;63554;48.940;12.050;2023-07-24T05:18:05;6.50;;;2.88;;
75007;SDS011;63554;48.940;12.050;2023-07-24T05:22:08;6.47;;;2.97;;
75007;SDS011;63554;48.940;12.050;2023-07-24T05:26:11;6.47;;;3.25;;
75007;SDS011;63554;48.940;12.050;2023-07-24T05:30:15;5.18;;;2.80;;
75007;SDS011;63554;48.940;12.050;2023-07-24T05:34:18;5.78;;;2.90;;
75007;SDS011;63554;48.940;12.050;2023-07-24T05:38:21;6.70;;;2.72;;
75007;SDS011;63554;48.940;12.050;2023-07-24T05:42:23;5.90;;;2.70;;
75007;SDS011;63554;48.940;12.050;2023-07-24T05:46:27;6.50;;;2.60;;
75007;SDS011;63554;48.940;12.050;2023-07-24T05:50:31;8.52;;;3.08;;
75007;SDS011;63554;48.940;12.050;2023-07-24T05:54:34;7.25;;;3.00;;
75007;SDS011;63554;48.940;12.050;2023-07-24T05:58:36;6.28;;;3.15;;
75007;SDS011;63554;48.940;12.050;2023-07-24T06:02:40;6.53;;;2.70;;
75007;SDS011;63554;48.940;12.050;2023-07-24T06:06:43;7.43;;;3.05;;
75007;SDS011;63554;48.940;12.050;2023-07-24T06:10:46;7.55;;;2.88;;
75007;SDS011;63554;48.940;12.050;2023-07-24T06:14:50;6.80;;;2.58;;
75007;SDS011;63554;48.940;12.050;2023-07-24T06:18:54;7.93;;;3.10;;
75007;SDS011;63554;48.940;12.050;2023-07-24T06:22:56;8.07;;;2.88;;
75007;SDS011;63554;48.940;12.050;2023-07-24T06:26:59;6.97;;;2.85;;
75007;SDS011;63554;48.940;12.050;2023-07-24T06:31:02;6.80;;;3.30;;
75007;SDS011;63554;48.940;12.050;2023-07-24T06:35:06;8.18;;;3.25;;
75007;SDS011;63554;48.940;12.050;2023-07-24T06:39:09;7.15;;;2.85;;
75007;SDS011;63554;48.940;12.050;2023-07-24T06:43:12;6.40;;;2.80;;
75007;SDS011;63554;48.940;12.050;2023-07-24T06:47:15;7.30;;;3.17;;
75007;SDS011;63554;48.940;12.050;2023-07-24T06:51:19;6.68;;;3.42;;
75007;SDS011;63554;48.940;12.050;2023-07-24T06:55:22;8.23;;;4.18;;
75007;SDS011;63554;48.940;12.050;2023-07-24T06:59:25;7.05;;;3.28;;
75007;SDS011;63554;48.940;12.050;2023-07-24T07:03:27;11.90;;;3.65;;
75007;SDS011;63554;48.940;12.050;2023-07-24T07:07:31;8.77;;;3.72;;
75007;SDS011;63554;48.940;12.050;2023-07-24T07:11:35;6.47;;;2.97;;
75007;SDS011;63554;48.940;12.050;2023-07-24T07:15:37;7.60;;;3.28;;
75007;SDS011;63554;48.940;12.050;2023-07-24T07:19:40;7.25;;;3.03;;
75007;SDS011;63554;48.940;12.050;2023-07-24T07:23:44;6.53;;;3.42;;
75007;SDS011;63554;48.940;12.050;2023-07-24T07:27:47;7.68;;;3.38;;
75007;SDS011;63554;48.940;12.050;2023-07-24T07:31:50;7.95;;;3.67;;
75007;SDS011;63554;48.940;12.050;2023-07-24T07:35:53;9.32;;;3.20;;
75007;SDS011;63554;48.940;12.050;2023-07-24T07:40:00;6.60;;;3.50;;
75007;SDS011;63554;48.940;12.050;2023-07-24T07:44:03;9.65;;;3.63;;
75007;SDS011;63554;48.940;12.050;2023-07-24T07:48:06;5.63;;;3.08;;
75007;SDS011;63554;48.940;12.050;2023-07-24T07:52:09;8.45;;;3.03;;
75007;SDS011;63554;48.940;12.050;2023-07-24T07:56:13;7.57;;;3.08;;
75007;SDS011;63554;48.940;12.050;2023-07-24T08:00:16;7.50;;;3.50;;
75007;SDS011;63554;48.940;12.050;2023-07-24T08:04:19;7.95;;;3.47;;
75007;SDS011;63554;48.940;12.050;2023-07-24T08:08:22;9.63;;;3.78;;
75007;SDS011;63554;48.940;12.050;2023-07-24T08:12:26;8.40;;;3.97;;
75007;SDS011;63554;48.940;12.050;2023-07-24T08:16:29;7.15;;;3.60;;
75007;SDS011;63554;48.940;12.050;2023-07-24T08:20:34;8.75;;;3.70;;
75007;SDS011;63554;48.940;12.050;2023-07-24T08:24:38;8.43;;;3.70;;
75007;SDS011;63554;48.940;12.050;2023-07-24T08:28:42;7.82;;;3.70;;
75007;SDS011;63554;48.940;12.050;2023-07-24T08:32:44;8.38;;;3.83;;
75007;SDS011;63554;48.940;12.050;2023-07-24T08:36:47;8.63;;;4.18;;
75007;SDS011;63554;48.940;12.050;2023-07-24T08:40:59;13.75;;;3.53;;
75007;SDS011;63554;48.940;12.050;2023-07-24T08:45:04;9.18;;;3.60;;
75007;SDS011;63554;48.940;12.050;2023-07-24T08:49:11;7.35;;;3.35;;
75007;SDS011;63554;48.940;12.050;2023-07-24T08:53:15;8.80;;;3.55;;
75007;SDS011;63554;48.940;12.050;2023-07-24T08:57:19;6.35;;;3.10;;
75007;SDS011;63554;48.940;12.050;2023-07-24T09:01:24;5.55;;;2.58;;
75007;SDS011;63554;48.940;12.050;2023-07-24T09:05:28;5.95;;;2.83;;
75007;SDS011;63554;48.940;12.050;2023-07-24T09:09:30;5.30;;;2.47;;
75007;SDS011;63554;48.940;12.050;2023-07-24T09:13:35;5.95;;;2.80;;
75007;SDS011;63554;48.940;12.050;2023-07-24T09:17:48;5.82;;;2.90;;
75007;SDS011;63554;48.940;12.050;2023-07-24T09:21:51;5.28;;;2.33;;
75007;SDS011;63554;48.940;12.050;2023-07-24T09:25:54;7.20;;;2.60;;
75007;SDS011;63554;48.940;12.050;2023-07-24T09:29:57;4.57;;;2.28;;
75007;SDS011;63554;48.940;12.050;2023-07-24T09:34:01;5.18;;;2.97;;
75007;SDS011;63554;48.940;12.050;2023-07-24T09:38:05;3.85;;;1.88;;
75007;SDS011;63554;48.940;12.050;2023-07-24T09:42:09;5.85;;;2.17;;
75007;SDS011;63554;48.940;12.050;2023-07-24T09:46:12;5.93;;;2.17;;
75007;SDS011;63554;48.940;12.050;2023-07-24T09:50:16;5.88;;;2.10;;
75007;SDS011;63554;48.940;12.050;2023-07-24T09:54:20;2.95;;;1.60;;
75007;SDS011;63554;48.940;12.050;2023-07-24T09:58:29;4.78;;;1.90;;
75007;SDS011;63554;48.940;12.050;2023-07-24T10:02:32;5.03;;;2.22;;
75007;SDS011;63554;48.940;12.050;2023-07-24T10:06:37;5.65;;;2.83;;
75007;SDS011;63554;48.940;12.050;2023-07-24T10:10:40;4.75;;;2.17;;
75007;SDS011;63554;48.940;12.050;2023-07-24T10:14:43;5.53;;;2.10;;
75007;SDS011;63554;48.940;12.050;2023-07-24T10:18:47;3.22;;;1.80;;
75007;SDS011;63554;48.940;12.050;2023-07-24T10:22:51;4.13;;;2.17;;
75007;SDS011;63554;48.940;12.050;2023-07-24T10:26:54;3.42;;;1.73;;
75007;SDS011;63554;48.940;12.050;2023-07-24T10:30:57;2.35;;;1.80;;
75007;SDS011;63554;48.940;12.050;2023-07-24T10:35:06;4.50;;;1.80;;
75007;SDS011;63554;48.940;12.050;2023-07-24T10:39:14;8.18;;;4.38;;
75007;SDS011;63554;48.940;12.050;2023-07-24T10:43:19;3.22;;;1.63;;
75007;SDS011;63554;48.940;12.050;2023-07-24T10:47:22;3.75;;;2.05;;
75007;SDS011;63554;48.940;12.050;2023-07-24T10:51:25;4.47;;;1.58;;
75007;SDS011;63554;48.940;12.050;2023-07-24T10:55:29;4.22;;;2.00;;
75007;SDS011;63554;48.940;12.050;2023-07-24T10:59:36;3.55;;;1.80;;
75007;SDS011;63554;48.940;12.050;2023-07-24T11:03:41;4.47;;;1.80;;
75007;SDS011;63554;48.940;12.050;2023-07-24T11:07:44;3.28;;;1.60;;
75007;SDS011;63554;48.940;12.050;2023-07-24T11:11:49;4.88;;;1.95;;
75007;SDS011;63554;48.940;12.050;2023-07-24T11:15:54;4.25;;;1.90;;
75007;SDS011;63554;48.940;12.050;2023-07-24T11:20:04;3.75;;;1.83;;
75007;SDS011;63554;48.940;12.050;2023-07-24T11:24:08;3.80;;;2.08;;
75007;SDS011;63554;48.940;12.050;2023-07-24T11:28:13;6.78;;;3.08;;
75007;SDS011;63554;48.940;12.050;2023-07-24T11:32:17;4.88;;;1.88;;
75007;SDS011;63554;48.940;12.050;2023-07-24T11:36:21;2.95;;;1.58;;
75007;SDS011;63554;48.940;12.050;2023-07-24T11:40:30;3.30;;;1.67;;
75007;SDS011;63554;48.940;12.050;2023-07-24T11:44:35;3.30;;;1.70;;
75007;SDS011;63554;48.940;12.050;2023-07-24T11:48:40;3.25;;;1.77;;
75007;SDS011;63554;48.940;12.050;2023-07-24T11:52:44;4.07;;;2.10;;
75007;SDS011;63554;48.940;12.050;2023-07-24T11:56:48;4.75;;;1.55;;
75007;SDS011;63554;48.940;12.050;2023-07-24T12:00:52;4.25;;;2.08;;
75007;SDS011;63554;48.940;12.050;2023-07-24T12:04:55;5.15;;;2.10;;
75007;SDS011;63554;48.940;12.050;2023-07-24T12:09:02;3.45;;;2.30;;
75007;SDS011;63554;48.940;12.050;2023-07-24T12:13:06;4.55;;;2.15;;
75007;SDS011;63554;48.940;12.050;2023-07-24T12:17:10;5.13;;;2.38;;
75007;SDS011;63554;48.940;12.050;2023-07-24T12:21:15;5.72;;;2.17;;
75007;SDS011;63554;48.940;12.050;2023-07-24T12:25:18;3.53;;;1.90;;
75007;SDS011;63554;48.940;12.050;2023-07-24T12:29:21;3.70;;;1.75;;
75007;SDS011;63554;48.940;12.050;2023-07-24T12:33:25;5.78;;;1.95;;
75007;SDS011;63554;48.940;12.050;2023-07-24T12:37:27;6.18;;;2.45;;
75007;SDS011;63554;48.940;12.050;2023-07-24T12:41:30;4.55;;;2.00;;
75007;SDS011;63554;48.940;12.050;2023-07-24T12:45:34;5.55;;;1.80;;
75007;SDS011;63554;48.940;12.050;2023-07-24T12:49:38;3.60;;;2.40;;
75007;SDS011;63554;48.940;12.050;2023-07-24T12:53:41;5.68;;;2.53;;
75007;SDS011;63554;48.940;12.050;2023-07-24T12:58:03;5.03;;;2.65;;
75007;SDS011;63554;48.940;12.050;2023-07-24T13:02:06;5.38;;;2.47;;
75007;SDS011;63554;48.940;12.050;2023-07-24T13:06:11;4.65;;;2.72;;
75007;SDS011;63554;48.940;12.050;2023-07-24T13:10:14;4.85;;;2.40;;
75007;SDS011;63554;48.940;12.050;2023-07-24T13:14:16;4.95;;;2.40;;
75007;SDS011;63554;48.940;12.050;2023-07-24T13:18:20;4.75;;;2.65;;
75007;SDS011;63554;48.940;12.050;2023-07-24T13:22:30;5.90;;;2.70;;
75007;SDS011;63554;48.940;12.050;2023-07-24T13:26:33;6.93;;;2.88;;
75007;SDS011;63554;48.940;12.050;2023-07-24T13:30:36;5.35;;;2.40;;
75007;SDS011;63554;48.940;12.050;2023-07-24T13:34:39;6.22;;;2.75;;
75007;SDS011;63554;48.940;12.050;2023-07-24T13:38:44;6.35;;;3.25;;
75007;SDS011;63554;48.940;12.050;2023-07-24T13:42:46;4.47;;;2.08;;
75007;SDS011;63554;48.940;12.050;2023-07-24T13:46:49;4.40;;;2.33;;
75007;SDS011;63554;48.940;12.050;2023-07-24T13:50:52;5.28;;;2.70;;
75007;SDS011;63554;48.940;12.050;2023-07-24T13:54:56;5.30;;;2.33;;
75007;SDS011;63554;48.940;12.050;2023-07-24T13:58:59;3.92;;;2.10;;
75007;SDS011;63554;48.940;12.050;2023-07-24T14:03:02;3.15;;;1.85;;
75007;SDS011;63554;48.940;12.050;2023-07-24T14:07:05;6.13;;;2.10;;
75007;SDS011;63554;48.940;12.050;2023-07-24T14:11:09;4.50;;;2.08;;
75007;SDS011;63554;48.940;12.050;2023-07-24T14:15:12;4.43;;;2.38;;
75007;SDS011;63554;48.940;12.050;2023-07-24T14:19:15;5.30;;;2.15;;
75007;SDS011;63554;48.940;12.050;2023-07-24T14:23:18;4.50;;;2.33;;
75007;SDS011;63554;48.940;12.050;2023-07-24T14:27:22;5.65;;;2.83;;
75007;SDS011;63554;48.940;12.050;2023-07-24T14:31:25;4.97;;;2.80;;
75007;SDS011;63554;48.940;12.050;2023-07-24T14:35:28;5.32;;;2.85;;
75007;SDS011;63554;48.940;12.050;2023-07-24T14:39:31;5.30;;;2.30;;
75007;SDS011;63554;48.940;12.050;2023-07-24T14:43:35;5.05;;;2.17;;
75007;SDS011;63554;48.940;12.050;2023-07-24T14:47:37;5.07;;;2.15;;
75007;SDS011;63554;48.940;12.050;2023-07-24T14:51:40;12.75;;;6.28;;
75007;SDS011;63554;48.940;12.050;2023-07-24T14:55:43;4.55;;;2.10;;
75007;SDS011;63554;48.940;12.050;2023-07-24T14:59:47;4.57;;;2.08;;
75007;SDS011;63554;48.940;12.050;2023-07-24T15:03:50;3.95;;;1.90;;
75007;SDS011;63554;48.940;12.050;2023-07-24T15:07:52;3.95;;;2.28;;
75007;SDS011;63554;48.940;12.050;2023-07-24T15:11:55;4.32;;;2.13;;
75007;SDS011;63554;48.940;12.050;2023-07-24T15:16:00;5.43;;;1.92;;
75007;SDS011;63554;48.940;12.050;2023-07-24T15:20:04;3.58;;;1.60;;
75007;SDS011;63554;48.940;12.050;2023-07-24T15:24:09;4.35;;;1.90;;
75007;SDS011;63554;48.940;12.050;2023-07-24T15:28:12;6.43;;;2.13;;
75007;SDS011;63554;48.940;12.050;2023-07-24T15:32:16;5.15;;;2.00;;
75007;SDS011;63554;48.940;12.050;2023-07-24T15:36:19;4.05;;;1.73;;
75007;SDS011;63554;48.940;12.050;2023-07-24T15:40:21;5.72;;;1.83;;
75007;SDS011;63554;48.940;12.050;2023-07-24T15:44:24;4.15;;;2.35;;
75007;SDS011;63554;48.940;12.050;2023-07-24T15:48:28;4.20;;;1.75;;
75007;SDS011;63554;48.940;12.050;2023-07-24T15:52:31;3.47;;;1.80;;
75007;SDS011;63554;48.940;12.050;2023-07-24T15:56:34;4.35;;;2.08;;
75007;SDS011;63554;48.940;12.050;2023-07-24T16:00:37;3.85;;;1.70;;
75007;SDS011;63554;48.940;12.050;2023-07-24T16:04:41;3.65;;;1.67;;
75007;SDS011;63554;48.940;12.050;2023-07-24T16:08:44;3.35;;;1.73;;
75007;SDS011;63554;48.940;12.050;2023-07-24T16:12:46;3.13;;;1.73;;
75007;SDS011;63554;48.940;12.050;2023-07-24T16:16:49;3.28;;;1.80;;
75007;SDS011;63554;48.940;12.050;2023-07-24T16:20:53;5.18;;;1.60;;
75007;SDS011;63554;48.940;12.050;2023-07-24T16:24:56;2.92;;;1.63;;
75007;SDS011;63554;48.940;12.050;2023-07-24T16:28:58;3.38;;;1.38;;
75007;SDS011;63554;48.940;12.050;2023-07-24T16:33:01;2.70;;;1.60;;
75007;SDS011;63554;48.940;12.050;2023-07-24T16:37:05;3.03;;;1.40;;
75007;SDS011;63554;48.940;12.050;2023-07-24T16:41:08;3.45;;;1.50;;
75007;SDS011;63554;48.940;12.050;2023-07-24T16:45:11;4.28;;;1.98;;
75007;SDS011;63554;48.940;12.050;2023-07-24T16:49:34;2.40;;;1.23;;
75007;SDS011;63554;48.940;12.050;2023-07-24T16:53:38;4.45;;;1.80;;
75007;SDS011;63554;48.940;12.050;2023-07-24T16:57:40;3.08;;;1.70;;
75007;SDS011;63554;48.940;12.050;2023-07-24T17:01:44;6.03;;;1.30;;
75007;SDS011;63554;48.940;12.050;2023-07-24T17:05:46;2.55;;;1.23;;
75007;SDS011;63554;48.940;12.050;2023-07-24T17:09:51;2.22;;;1.20;;
75007;SDS011;63554;48.940;12.050;2023-07-24T17:13:53;2.53;;;1.27;;
75007;SDS011;63554;48.940;12.050;2023-07-24T17:17:57;2.22;;;1.33;;
75007;SDS011;63554;48.940;12.050;2023-07-24T17:22:00;1.65;;;1.08;;
75007;SDS011;63554;48.940;12.050;2023-07-24T17:26:04;2.35;;;1.23;;
75007;SDS011;63554;48.940;12.050;2023-07-24T17:30:07;2.63;;;1.15;;
75007;SDS011;63554;48.940;12.050;2023-07-24T17:34:10;3.13;;;1.20;;
75007;SDS011;63554;48.940;12.050;2023-07-24T17:38:13;2.03;;;0.90;;
75007;SDS011;63554;48.940;12.050;2023-07-24T17:42:17;2.13;;;1.00;;
75007;SDS011;63554;48.940;12.050;2023-07-24T17:46:20;1.63;;;0.90;;
75007;SDS011;63554;48.940;12.050;2023-07-24T17:50:22;1.92;;;1.10;;
75007;SDS011;63554;48.940;12.050;2023-07-24T17:54:25;1.13;;;0.80;;
75007;SDS011;63554;48.940;12.050;2023-07-24T17:58:29;2.53;;;1.30;;
75007;SDS011;63554;48.940;12.050;2023-07-24T18:02:33;1.95;;;0.73;;
75007;SDS011;63554;48.940;12.050;2023-07-24T18:06:36;2.20;;;0.80;;
75007;SDS011;63554;48.940;12.050;2023-07-24T18:10:39;1.35;;;0.90;;
75007;SDS011;63554;48.940;12.050;2023-07-24T18:14:43;2.10;;;1.02;;
75007;SDS011;63554;48.940;12.050;2023-07-24T18:18:46;2.47;;;1.10;;
75007;SDS011;63554;48.940;12.050;2023-07-24T18:22:48;1.83;;;0.93;;
75007;SDS011;63554;48.940;12.050;2023-07-24T18:26:51;1.77;;;0.98;;
75007;SDS011;63554;48.940;12.050;2023-07-24T18:30:55;1.85;;;0.90;;
75007;SDS011;63554;48.940;12.050;2023-07-24T18:34:58;2.33;;;1.10;;
75007;SDS011;63554;48.940;12.050;2023-07-24T18:39:00;3.92;;;1.00;;
75007;SDS011;63554;48.940;12.050;2023-07-24T18:43:03;2.55;;;1.27;;
75007;SDS011;63554;48.940;12.050;2023-07-24T18:47:07;1.92;;;0.82;;
75007;SDS011;63554;48.940;12.050;2023-07-24T18:51:10;3.08;;;1.17;;
75007;SDS011;63554;48.940;12.050;2023-07-24T18:55:13;1.95;;;0.98;;
75007;SDS011;63554;48.940;12.050;2023-07-24T18:59:16;2.20;;;0.90;;
75007;SDS011;63554;48.940;12.050;2023-07-24T19:03:20;2.45;;;1.20;;
75007;SDS011;63554;48.940;12.050;2023-07-24T19:07:23;2.53;;;1.30;;
75007;SDS011;63554;48.940;12.050;2023-07-24T19:11:26;3.92;;;1.60;;
75007;SDS011;63554;48.940;12.050;2023-07-24T19:15:29;2.63;;;1.55;;
75007;SDS011;63554;48.940;12.050;2023-07-24T19:19:33;3.35;;;1.60;;
75007;SDS011;63554;48.940;12.050;2023-07-24T19:23:36;3.78;;;1.40;;
75007;SDS011;63554;48.940;12.050;2023-07-24T19:27:39;4.03;;;1.80;;
75007;SDS011;63554;48.940;12.050;2023-07-24T19:31:42;4.32;;;1.25;;
75007;SDS011;63554;48.940;12.050;2023-07-24T19:35:46;2.75;;;1.13;;
75007;SDS011;63554;48.940;12.050;2023-07-24T19:39:49;3.83;;;2.20;;
75007;SDS011;63554;48.940;12.050;2023-07-24T19:43:52;4.55;;;1.70;;
75007;SDS011;63554;48.940;12.050;2023-07-24T19:47:54;2.75;;;1.15;;
75007;SDS011;63554;48.940;12.050;2023-07-24T19:51:59;3.17;;;1.60;;
75007;SDS011;63554;48.940;12.050;2023-07-24T19:56:02;2.47;;;1.15;;
75007;SDS011;63554;48.940;12.050;2023-07-24T20:00:06;4.85;;;1.58;;
75007;SDS011;63554;48.940;12.050;2023-07-24T20:04:09;1.83;;;1.30;;
75007;SDS011;63554;48.940;12.050;2023-07-24T20:08:13;2.28;;;1.20;;
75007;SDS011;63554;48.940;12.050;2023-07-24T20:12:16;2.58;;;1.20;;
75007;SDS011;63554;48.940;12.050;2023-07-24T20:16:19;3.08;;;1.55;;
75007;SDS011;63554;48.940;12.050;2023-07-24T20:20:22;5.47;;;1.70;;
75007;SDS011;63554;48.940;12.050;2023-07-24T20:24:26;4.68;;;1.95;;
75007;SDS011;63554;48.940;12.050;2023-07-24T20:28:29;3.90;;;1.85;;
75007;SDS011;63554;48.940;12.050;2023-07-24T20:32:32;4.75;;;1.65;;
75007;SDS011;63554;48.940;12.050;2023-07-24T20:36:36;3.33;;;1.70;;
75007;SDS011;63554;48.940;12.050;2023-07-24T20:40:42;2.88;;;1.45;;
75007;SDS011;63554;48.940;12.050;2023-07-24T20:44:45;2.47;;;1.30;;
75007;SDS011;63554;48.940;12.050;2023-07-24T20:48:52;2.42;;;1.08;;
75007;SDS011;63554;48.940;12.050;2023-07-24T20:52:55;2.67;;;1.17;;
75007;SDS011;63554;48.940;12.050;2023-07-24T20:56:59;2.17;;;1.23;;
75007;SDS011;63554;48.940;12.050;2023-07-24T21:01:02;3.78;;;1.35;;
75007;SDS011;63554;48.940;12.050;2023-07-24T21:05:05;2.38;;;1.38;;
75007;SDS011;63554;48.940;12.050;2023-07-24T21:09:09;3.25;;;1.40;;
75007;SDS011;63554;48.940;12.050;2023-07-24T21:13:13;3.40;;;1.50;;
75007;SDS011;63554;48.940;12.050;2023-07-24T21:17:16;4.72;;;1.45;;
75007;SDS011;63554;48.940;12.050;2023-07-24T21:21:18;2.72;;;1.20;;
75007;SDS011;63554;48.940;12.050;2023-07-24T21:25:21;2.60;;;1.17;;
75007;SDS011;63554;48.940;12.050;2023-07-24T21:29:25;5.90;;;1.40;;
75007;SDS011;63554;48.940;12.050;2023-07-24T21:33:28;3.63;;;1.60;;
75007;SDS011;63554;48.940;12.050;2023-07-24T21:37:31;3.10;;;1.10;;
75007;SDS011;63554;48.940;12.050;2023-07-24T21:41:33;2.00;;;1.15;;
75007;SDS011;63554;48.940;12.050;2023-07-24T21:45:38;5.00;;;1.38;;
75007;SDS011;63554;48.940;12.050;2023-07-24T21:49:44;3.22;;;0.73;;
75007;SDS011;63554;48.940;12.050;2023-07-24T21:53:46;2.33;;;1.05;;
75007;SDS011;63554;48.940;12.050;2023-07-24T21:57:49;2.10;;;0.80;;
75007;SDS011;63554;48.940;12.050;2023-07-24T22:01:53;2.35;;;0.85;;
75007;SDS011;63554;48.940;12.050;2023-07-24T22:05:56;2.08;;;0.80;;
75007;SDS011;63554;48.940;12.050;2023-07-24T22:09:59;3.63;;;0.77;;
75007;SDS011;63554;48.940;12.050;2023-07-24T22:14:02;1.50;;;0.70;;
75007;SDS011;63554;48.940;12.050;2023-07-24T22:18:06;2.53;;;1.02;;
75007;SDS011;63554;48.940;12.050;2023-07-24T22:22:09;2.38;;;1.00;;
75007;SDS011;63554;48.940;12.050;2023-07-24T22:26:11;2.80;;;1.25;;
75007;SDS011;63554;48.940;12.050;2023-07-24T22:30:14;3.08;;;1.33;;
75007;SDS011;63554;48.940;12.050;2023-07-24T22:34:18;2.90;;;0.93;;
75007;SDS011;63554;48.940;12.050;2023-07-24T22:38:21;2.47;;;1.08;;
75007;SDS011;63554;48.940;12.050;2023-07-24T22:42:24;3.22;;;1.50;;
75007;SDS011;63554;48.940;12.050;2023-07-24T22:46:27;1.33;;;1.00;;
75007;SDS011;63554;48.940;12.050;2023-07-24T22:50:31;3.40;;;1.27;;
75007;SDS011;63554;48.940;12.050;2023-07-24T22:54:33;2.47;;;1.30;;
75007;SDS011;63554;48.940;12.050;2023-07-24T22:58:48;2.38;;;0.80;;
75007;SDS011;63554;48.940;12.050;2023-07-24T23:03:15;3.42;;;1.10;;
75007;SDS011;63554;48.940;12.050;2023-07-24T23:07:20;3.22;;;1.38;;
75007;SDS011;63554;48.940;12.050;2023-07-24T23:11:22;2.60;;;1.00;;
75007;SDS011;63554;48.940;12.050;2023-07-24T23:15:25;2.80;;;1.02;;
75007;SDS011;63554;48.940;12.050;2023-07-24T23:19:28;2.63;;;1.30;;
75007;SDS011;63554;48.940;12.050;2023-07-24T23:23:32;2.55;;;1.30;;
75007;SDS011;63554;48.940;12.050;2023-07-24T23:27:34;2.67;;;1.35;;
75007;SDS011;63554;48.940;12.050;2023-07-24T23:31:37;1.90;;;1.15;;
75007;SDS011;63554;48.940;12.050;2023-07-24T23:35:40;2.25;;;1.08;;
75007;SDS011;63554;48.940;12.050;2023-07-24T23:39:44;2.20;;;1.20;;
75007;SDS011;63554;48.940;12.050;2023-07-24T23:43:47;1.70;;;0.90;;
75007;SDS011;63554;48.940;12.050;2023-07-24T23:47:49;4.25;;;1.20;;
75007;SDS011;63554;48.940;12.050;2023-07-24T23:51:52;2.10;;;1.23;;
75007;SDS011;63554;48.940;12.050;2023-07-24T23:55:56;1.95;;;1.20;;
75007;SDS011;63554;48.940;12.050;2023-07-24T23:59:59;2.35;;;1.13;;
